Time;durP1;ratioP1;P1;durP2;ratioP2;P2;SDS_P1;SDS_P2;PMS_P1;PMS_P2;Temp;Humidity;BMP_temperature;BMP_pressure;BME280_temperature;BME280_humidity;BME280_pressure;Samples;Min_cycle;Max_cycle;Signal;HPM_P1;HPM_P2
2023/03/16 00:00:52;;;;;;;158.43;152.03;;;1.10;99.90;;;;;;6156983;23;20512;-76
2023/03/16 00:03:19;;;;;;;159.87;153.43;;;1.10;99.90;;;;;;6193557;23;20416;-77
2023/03/16 00:05:46;;;;;;;139.50;134.07;;;1.20;99.90;;;;;;6157374;23;20459;-77
2023/03/16 00:08:15;;;;;;;155.97;150.07;;;1.20;99.90;;;;;;6183561;23;20472;-77
2023/03/16 00:10:45;;;;;;;167.27;160.67;;;1.10;99.90;;;;;;6183728;23;20750;-76
2023/03/16 00:13:14;;;;;;;160.17;153.87;;;1.10;99.90;;;;;;6183312;23;20409;-76
2023/03/16 00:15:41;;;;;;;140.47;134.67;;;1.20;99.90;;;;;;6183980;23;20413;-76
2023/03/16 00:18:08;;;;;;;150.03;144.23;;;1.20;99.90;;;;;;6183717;23;20433;-77
2023/03/16 00:20:36;;;;;;;130.87;125.87;;;1.30;99.90;;;;;;6183408;23;20433;-77
2023/03/16 00:23:03;;;;;;;132.00;126.27;;;1.30;99.90;;;;;;6185266;23;20419;-76
2023/03/16 00:25:33;;;;;;;108.23;103.23;;;1.40;99.90;;;;;;6185556;23;20417;-77
2023/03/16 00:28:02;;;;;;;113.90;109.10;;;1.40;99.90;;;;;;6185805;23;20440;-76
2023/03/16 00:30:30;;;;;;;101.83;97.63;;;1.50;99.90;;;;;;6184168;23;20925;-77
2023/03/16 00:32:57;;;;;;;102.73;98.17;;;1.40;99.90;;;;;;6185127;23;20422;-76
2023/03/16 00:35:24;;;;;;;98.90;94.70;;;1.40;99.90;;;;;;6185730;23;20413;-77
2023/03/16 00:37:56;;;;;;;95.33;91.23;;;1.50;99.90;;;;;;6158824;23;20448;-76
2023/03/16 00:40:24;;;;;;;89.27;85.80;;;1.50;99.90;;;;;;6185178;23;20421;-77
2023/03/16 00:42:53;;;;;;;94.53;90.57;;;1.60;99.90;;;;;;6185331;23;20421;-76
2023/03/16 00:45:23;;;;;;;92.30;88.20;;;1.60;99.90;;;;;;6185261;23;20500;-77
2023/03/16 00:47:53;;;;;;;88.07;83.97;;;1.60;99.90;;;;;;6185498;23;20432;-76
2023/03/16 00:50:21;;;;;;;78.53;75.00;;;1.70;99.90;;;;;;6184992;23;20409;-76
2023/03/16 00:52:48;;;;;;;68.40;65.27;;;1.70;99.90;;;;;;6158642;23;20757;-76
2023/03/16 00:55:15;;;;;;;51.27;48.70;;;1.70;99.90;;;;;;6185524;23;20479;-77
2023/03/16 00:57:43;;;;;;;46.90;44.10;;;1.80;99.90;;;;;;6184885;23;20755;-77
2023/03/16 01:00:15;;;;;;;39.93;36.43;;;1.90;99.90;;;;;;6158763;23;20437;-77
2023/03/16 01:02:45;;;;;;;34.30;31.00;;;1.90;99.90;;;;;;6185233;23;20405;-77
2023/03/16 01:05:13;;;;;;;30.43;28.63;;;1.90;99.90;;;;;;6195293;23;20724;-77
2023/03/16 01:07:40;;;;;;;25.90;24.20;;;2.00;99.90;;;;;;6184851;23;20459;-77
2023/03/16 01:10:09;;;;;;;25.97;23.93;;;2.00;99.90;;;;;;6184841;23;20811;-77
2023/03/16 01:12:36;;;;;;;21.10;19.70;;;2.00;99.90;;;;;;6184902;23;20409;-76
2023/03/16 01:15:04;;;;;;;20.80;19.40;;;2.00;99.90;;;;;;6185193;23;20417;-77
2023/03/16 01:17:34;;;;;;;18.77;16.93;;;2.00;99.90;;;;;;6185383;23;20440;-77
2023/03/16 01:20:06;;;;;;;17.20;15.80;;;2.10;99.90;;;;;;6185229;23;20425;-76
2023/03/16 01:22:33;;;;;;;16.63;14.47;;;2.10;99.90;;;;;;6185247;23;20716;-76
2023/03/16 01:25:02;;;;;;;15.23;13.97;;;2.10;99.90;;;;;;6185345;23;20761;-76
2023/03/16 01:27:30;;;;;;;13.20;12.00;;;2.10;99.90;;;;;;6159332;23;20444;-77
2023/03/16 01:29:56;;;;;;;12.63;11.07;;;2.20;99.90;;;;;;6184924;23;20991;-77
2023/03/16 01:32:23;;;;;;;11.80;10.70;;;2.20;99.90;;;;;;6184550;23;20472;-77
2023/03/16 01:34:52;;;;;;;12.10;10.90;;;2.20;99.90;;;;;;6158160;23;20417;-77
2023/03/16 01:37:19;;;;;;;12.67;10.83;;;2.10;99.90;;;;;;6158231;23;20437;-77
2023/03/16 01:39:46;;;;;;;12.83;11.53;;;2.10;99.90;;;;;;6158279;23;20417;-77
2023/03/16 01:42:13;;;;;;;12.77;10.87;;;2.10;99.90;;;;;;6184979;23;20499;-77
2023/03/16 01:45:04;;;;;;;13.60;12.20;;;2.10;99.90;;;;;;6185025;23;20420;-76
2023/03/16 01:50:36;;;;;;;13.73;11.90;;;2.10;99.90;;;;;;6152400;23;20420;-77
2023/03/16 01:56:04;;;;;;;16.27;13.23;;;2.00;99.90;;;;;;6146989;23;20501;-76
2023/03/16 01:58:35;;;;;;;12.90;11.70;;;2.10;99.90;;;;;;6155164;23;20825;-77
2023/03/16 02:01:27;;;;;;;13.23;12.00;;;2.00;99.90;;;;;;6164100;23;20438;-77
2023/03/16 02:04:00;;;;;;;11.90;10.53;;;2.10;99.90;;;;;;6133298;23;20422;-77
2023/03/16 02:06:29;;;;;;;13.70;10.50;;;2.10;99.90;;;;;;6154329;23;20409;-77
2023/03/16 02:08:57;;;;;;;12.07;10.97;;;2.00;99.90;;;;;;6154841;23;20432;-77
2023/03/16 02:11:25;;;;;;;14.00;10.93;;;2.10;99.90;;;;;;6128429;23;20747;-77
2023/03/16 02:13:52;;;;;;;14.80;11.23;;;2.10;99.90;;;;;;6138707;23;21021;-77
2023/03/16 02:16:21;;;;;;;13.03;10.37;;;2.00;99.90;;;;;;6154872;23;20926;-77
2023/03/16 02:18:49;;;;;;;12.70;11.70;;;2.10;99.90;;;;;;6154914;23;20493;-77
2023/03/16 02:21:24;;;;;;;12.60;11.40;;;2.10;99.90;;;;;;6154118;23;20430;-77
2023/03/16 02:23:52;;;;;;;11.70;10.60;;;2.10;99.90;;;;;;6154640;23;20886;-77
2023/03/16 02:26:26;;;;;;;14.83;13.10;;;2.10;99.90;;;;;;6154575;23;20914;-77
2023/03/16 02:29:06;;;;;;;13.47;12.37;;;2.10;99.90;;;;;;6154754;23;20437;-77
2023/03/16 02:31:35;;;;;;;14.67;13.17;;;2.00;99.90;;;;;;6130351;23;20422;-77
2023/03/16 02:34:03;;;;;;;14.50;13.07;;;2.00;99.90;;;;;;6154811;23;20418;-77
2023/03/16 03:01:30;;;;;;;19.13;17.63;;;2.10;99.90;;;;;;6123597;23;20474;-83
2023/03/16 03:04:02;;;;;;;17.80;16.20;;;2.20;99.90;;;;;;6124929;23;20435;-83
2023/03/16 03:06:39;;;;;;;15.20;13.80;;;2.10;99.90;;;;;;6098388;23;20422;-82
2023/03/16 04:16:27;;;;;;;10.73;9.63;;;2.40;99.90;;;;;;6105465;23;20426;-93
2023/03/16 04:19:28;;;;;;;11.00;8.23;;;2.40;99.90;;;;;;6130803;23;20411;-94
2023/03/16 05:04:01;;;;;;;10.93;8.77;;;2.50;99.90;;;;;;6160731;23;20437;-81
2023/03/16 05:06:36;;;;;;;9.60;8.03;;;2.50;99.90;;;;;;6154838;23;20446;-81
2023/03/16 05:09:20;;;;;;;10.90;7.53;;;2.50;99.90;;;;;;6155648;23;20434;-81
2023/03/16 05:14:33;;;;;;;31.17;16.73;;;2.60;99.90;;;;;;6157064;23;20473;-81
2023/03/16 05:17:02;;;;;;;7.90;7.10;;;2.60;99.90;;;;;;6164751;23;20386;-81
2023/03/16 05:19:36;;;;;;;14.80;7.97;;;2.50;99.90;;;;;;6155136;23;20437;-81
2023/03/16 05:22:06;;;;;;;10.23;8.73;;;2.50;99.90;;;;;;6154649;23;21021;-81
2023/03/16 05:24:40;;;;;;;9.50;8.50;;;2.60;99.90;;;;;;6129165;23;20849;-81
2023/03/16 05:27:07;;;;;;;11.37;8.67;;;2.50;99.90;;;;;;6155648;23;20399;-81
2023/03/16 05:29:39;;;;;;;12.07;8.70;;;2.50;99.90;;;;;;6154908;23;20972;-81
2023/03/16 05:32:10;;;;;;;15.90;9.03;;;2.50;99.90;;;;;;6155497;23;20398;-81
2023/03/16 05:34:39;;;;;;;10.50;8.87;;;2.50;99.90;;;;;;6154648;23;20898;-81
2023/03/16 05:37:06;;;;;;;10.80;9.70;;;2.40;99.90;;;;;;6155263;23;20420;-81
2023/03/16 05:39:33;;;;;;;11.83;10.17;;;2.50;99.90;;;;;;6155234;23;20430;-81
2023/03/16 05:42:00;;;;;;;10.53;9.30;;;2.50;99.90;;;;;;6154665;23;20520;-81
2023/03/16 05:44:30;;;;;;;12.60;10.00;;;2.60;99.90;;;;;;6155191;23;20485;-81
2023/03/16 05:46:57;;;;;;;11.67;9.83;;;2.50;99.90;;;;;;6155479;23;20414;-81
2023/03/16 06:36:24;;;;;;;9.10;5.77;;;3.60;99.90;;;;;;6095848;23;20431;-81
2023/03/16 06:38:53;;;;;;;10.10;6.00;;;3.70;99.90;;;;;;6096139;23;20439;-81
2023/03/16 06:41:23;;;;;;;11.60;6.50;;;3.70;99.90;;;;;;6095728;23;20471;-81
2023/03/16 06:43:50;;;;;;;10.97;5.97;;;3.80;99.90;;;;;;6096026;23;20416;-80
2023/03/16 06:46:21;;;;;;;9.83;6.70;;;3.80;99.90;;;;;;6070340;23;20419;-82
2023/03/16 06:48:51;;;;;;;9.50;6.20;;;3.90;99.90;;;;;;6094442;23;20450;-81
2023/03/16 06:51:22;;;;;;;11.13;6.23;;;3.90;99.90;;;;;;6095414;23;20415;-82
2023/03/16 06:53:53;;;;;;;13.40;6.90;;;3.90;99.90;;;;;;6095841;23;20404;-81
2023/03/16 06:56:22;;;;;;;8.90;6.10;;;4.00;99.90;;;;;;6095092;23;20442;-82
2023/03/16 06:58:54;;;;;;;12.30;6.47;;;4.10;99.90;;;;;;6043145;23;20447;-81
2023/03/16 07:01:23;;;;;;;11.53;7.40;;;4.20;99.90;;;;;;6094516;23;20482;-82
2023/03/16 07:06:28;;;;;;;12.47;6.47;;;4.30;99.90;;;;;;6175135;23;20449;-93
2023/03/16 07:08:55;;;;;;;10.90;5.83;;;4.40;99.90;;;;;;6186095;23;20422;-94
2023/03/16 07:11:22;;;;;;;11.60;6.17;;;4.50;99.90;;;;;;6186449;23;20410;-94
2023/03/16 07:13:50;;;;;;;10.70;5.33;;;4.50;99.90;;;;;;6186642;23;20433;-94
2023/03/16 07:16:17;;;;;;;8.70;5.30;;;4.50;99.90;;;;;;6186936;23;20426;-95
2023/03/16 07:18:45;;;;;;;10.03;6.27;;;4.70;99.90;;;;;;6177316;23;20417;-94
2023/03/16 07:23:54;;;;;;;13.97;6.17;;;4.90;99.90;;;;;;6176438;23;20398;-93
2023/03/16 07:26:21;;;;;;;11.00;6.03;;;5.00;99.90;;;;;;6184877;23;20419;-93
2023/03/16 07:28:50;;;;;;;10.93;5.80;;;5.10;99.90;;;;;;6185193;23;20177;-94
2023/03/16 07:31:18;;;;;;;10.40;6.20;;;5.20;99.90;;;;;;6185808;23;20414;-94
2023/03/16 07:33:45;;;;;;;11.97;6.73;;;5.40;99.90;;;;;;6175641;23;20752;-94
2023/03/16 07:36:12;;;;;;;10.47;5.93;;;5.50;99.90;;;;;;6186348;23;20441;-94
2023/03/16 07:38:40;;;;;;;10.73;5.83;;;5.70;99.90;;;;;;6184598;23;20417;-94
2023/03/16 07:41:13;;;;;;;11.40;5.27;;;5.80;99.90;;;;;;6185928;23;20517;-94
2023/03/16 07:43:40;;;;;;;9.70;6.20;;;5.90;99.90;;;;;;6186007;23;20453;-93
2023/03/16 07:46:07;;;;;;;10.97;6.40;;;6.00;99.90;;;;;;6186449;23;20421;-94
2023/03/16 07:48:36;;;;;;;10.33;5.37;;;6.10;99.90;;;;;;6185938;23;20413;-93
2023/03/16 07:51:05;;;;;;;8.17;4.90;;;6.00;99.90;;;;;;6185919;23;20905;-95
2023/03/16 07:53:34;;;;;;;11.93;6.00;;;5.90;99.90;;;;;;6185705;23;20414;-94
2023/03/16 07:56:01;;;;;;;10.40;5.50;;;6.20;99.90;;;;;;6186452;23;20437;-94
2023/03/16 07:58:47;;;;;;;11.10;5.93;;;6.30;99.40;;;;;;6176609;23;20420;-95
2023/03/16 08:01:14;;;;;;;11.47;5.90;;;6.30;99.50;;;;;;6185150;23;20441;-94
2023/03/16 08:03:41;;;;;;;14.20;5.60;;;6.30;98.90;;;;;;6184523;23;20410;-94
2023/03/16 08:06:10;;;;;;;11.50;5.80;;;6.50;99.40;;;;;;6184309;23;20433;-94
2023/03/16 08:08:39;;;;;;;10.97;6.80;;;6.40;98.30;;;;;;6174743;23;20410;-94
2023/03/16 08:11:07;;;;;;;10.20;5.33;;;6.50;98.10;;;;;;6184480;23;20437;-95
2023/03/16 08:13:34;;;;;;;9.50;5.40;;;6.50;97.90;;;;;;6184563;23;20449;-94
2023/03/16 08:16:18;;;;;;;7.93;4.70;;;6.40;98.70;;;;;;6183975;23;20437;-95
2023/03/16 08:18:46;;;;;;;10.73;5.60;;;6.50;98.00;;;;;;6183279;23;20418;-94
2023/03/16 08:21:14;;;;;;;11.17;6.00;;;6.60;98.80;;;;;;6181285;23;20850;-94
2023/03/16 08:23:42;;;;;;;11.20;5.70;;;6.60;98.20;;;;;;6184650;23;20906;-94
2023/03/16 08:26:10;;;;;;;9.53;5.17;;;6.70;97.50;;;;;;6149200;23;20473;-94
2023/03/16 08:28:45;;;;;;;10.83;6.47;;;6.80;97.20;;;;;;6184105;23;20417;-94
2023/03/16 08:31:13;;;;;;;12.03;7.63;;;6.90;96.90;;;;;;6184875;23;20413;-94
2023/03/16 08:33:43;;;;;;;10.63;6.70;;;6.90;97.90;;;;;;6184742;23;20410;-95
2023/03/16 08:36:15;;;;;;;10.67;6.40;;;6.90;96.90;;;;;;6177932;23;21226;-93
2023/03/16 08:38:43;;;;;;;12.90;6.40;;;6.90;96.90;;;;;;6173338;23;20492;-94
2023/03/16 08:41:12;;;;;;;9.20;5.10;;;6.90;96.80;;;;;;6172745;23;20433;-92
2023/03/16 08:43:39;;;;;;;10.70;5.70;;;6.90;97.80;;;;;;6165180;23;20410;-93
2023/03/16 08:46:06;;;;;;;13.60;5.20;;;6.80;98.30;;;;;;6164404;23;20892;-92
2023/03/16 08:48:33;;;;;;;12.80;5.47;;;6.90;98.90;;;;;;6163682;23;20417;-93
2023/03/16 08:51:04;;;;;;;11.50;6.60;;;6.90;98.00;;;;;;6163231;23;20504;-93
2023/03/16 08:53:31;;;;;;;13.17;5.83;;;7.00;97.70;;;;;;6172525;23;20504;-93
2023/03/16 08:56:03;;;;;;;11.50;7.03;;;7.10;97.70;;;;;;6163864;23;20505;-93
2023/03/16 08:58:31;;;;;;;9.50;5.10;;;7.30;97.40;;;;;;6163872;23;20481;-94
2023/03/16 09:00:59;;;;;;;9.97;5.80;;;7.30;97.00;;;;;;6164919;23;20414;-93
2023/03/16 09:03:26;;;;;;;11.03;5.80;;;7.60;97.10;;;;;;6175860;23;20441;-93
2023/03/16 09:06:00;;;;;;;11.33;5.70;;;7.70;96.30;;;;;;6163544;23;20508;-94
2023/03/16 09:08:28;;;;;;;8.50;5.30;;;7.80;96.40;;;;;;6163375;23;20491;-94
2023/03/16 09:11:00;;;;;;;11.30;5.67;;;8.10;95.60;;;;;;6163556;23;20793;-93
2023/03/16 09:13:27;;;;;;;9.60;4.50;;;8.30;96.10;;;;;;6162005;23;20742;-94
2023/03/16 09:15:55;;;;;;;10.53;6.00;;;8.40;95.80;;;;;;6164591;23;20410;-93
2023/03/16 09:18:22;;;;;;;9.43;5.07;;;8.80;95.60;;;;;;6162935;23;20926;-93
2023/03/16 09:20:50;;;;;;;9.97;5.63;;;9.20;94.50;;;;;;6165803;23;20477;-93
2023/03/16 09:23:17;;;;;;;8.67;5.33;;;9.40;92.90;;;;;;6159256;23;20410;-93
2023/03/16 09:25:57;;;;;;;10.55;5.00;;;9.50;91.20;;;;;;6160292;23;20472;-93
2023/03/16 09:28:26;;;;;;;9.93;5.10;;;9.90;91.40;;;;;;6178128;23;20657;-92
2023/03/16 09:31:14;;;;;;;7.63;4.73;;;10.10;89.30;;;;;;6176269;23;20903;-94
2023/03/16 09:33:43;;;;;;;8.23;4.60;;;10.00;86.70;;;;;;6174994;23;20433;-93
2023/03/16 09:36:35;;;;;;;10.43;4.90;;;9.80;88.60;;;;;;6176165;23;20442;-93
2023/03/16 09:39:02;;;;;;;6.73;4.00;;;9.80;90.00;;;;;;6178693;23;20417;-93
2023/03/16 09:41:42;;;;;;;10.00;4.40;;;9.60;87.30;;;;;;6168312;23;20410;-93
2023/03/16 09:44:28;;;;;;;7.00;3.93;;;9.40;87.80;;;;;;6166478;23;20394;-94
2023/03/16 09:46:58;;;;;;;9.80;4.53;;;9.30;90.20;;;;;;6175109;23;20984;-94
2023/03/16 09:49:31;;;;;;;8.17;4.43;;;9.00;88.80;;;;;;6165473;23;20410;-93
2023/03/16 09:52:06;;;;;;;8.67;5.10;;;9.00;90.00;;;;;;6165843;23;20757;-94
2023/03/16 09:54:41;;;;;;;9.00;4.60;;;9.00;89.10;;;;;;6171471;23;20393;-93
2023/03/16 09:57:18;;;;;;;9.63;4.83;;;9.10;89.30;;;;;;6172190;23;20453;-94
2023/03/16 09:59:45;;;;;;;13.43;4.40;;;9.10;89.50;;;;;;6172956;23;20394;-94
2023/03/16 10:02:36;;;;;;;6.80;3.80;;;9.10;90.20;;;;;;6168218;23;20494;-93
2023/03/16 10:05:08;;;;;;;8.77;4.23;;;9.00;89.70;;;;;;6165679;23;20868;-94
2023/03/16 10:07:49;;;;;;;7.60;4.60;;;9.20;90.00;;;;;;6164630;23;20513;-93
2023/03/16 10:10:45;;;;;;;6.93;4.23;;;9.30;88.40;;;;;;6175465;23;20761;-94
2023/03/16 10:14:04;;;;;;;11.63;5.03;;;9.30;87.50;;;;;;6175169;23;20437;-93
2023/03/16 10:16:37;;;;;;;7.17;4.20;;;9.50;87.80;;;;;;6176493;23;20437;-93
2023/03/16 10:19:12;;;;;;;9.17;5.10;;;9.80;87.30;;;;;;6166751;23;20394;-93
2023/03/16 10:21:40;;;;;;;8.80;4.53;;;10.00;86.50;;;;;;6171426;23;20458;-93
2023/03/16 10:24:17;;;;;;;11.37;4.30;;;10.10;86.30;;;;;;6169806;23;20409;-94
2023/03/16 10:27:22;;;;;;;7.30;4.20;;;10.20;85.40;;;;;;6171665;23;20433;-94
2023/03/16 10:30:34;;;;;;;7.90;4.10;;;9.90;82.10;;;;;;6178449;23;20418;-93
2023/03/16 10:33:28;;;;;;;6.50;3.60;;;10.50;84.80;;;;;;6015779;23;20442;-93
2023/03/16 10:36:10;;;;;;;9.83;4.90;;;10.60;81.00;;;;;;6135884;23;20531;-93
2023/03/16 10:38:54;;;;;;;7.37;4.70;;;10.90;81.70;;;;;;6175699;23;20742;-93
2023/03/16 10:41:42;;;;;;;8.77;4.20;;;11.00;77.90;;;;;;6175217;23;20500;-94
2023/03/16 10:44:22;;;;;;;7.93;4.70;;;11.40;79.80;;;;;;6175273;23;20420;-93
2023/03/16 10:47:03;;;;;;;7.87;3.93;;;11.20;78.00;;;;;;6175490;23;20437;-94
2023/03/16 10:49:47;;;;;;;10.97;4.60;;;11.20;76.60;;;;;;6171413;23;20421;-93
2023/03/16 10:52:23;;;;;;;10.53;4.20;;;11.40;78.20;;;;;;6173694;23;20476;-94
2023/03/16 10:54:57;;;;;;;7.87;4.57;;;11.40;76.20;;;;;;6174052;23;20413;-94
2023/03/16 10:57:37;;;;;;;11.20;5.87;;;11.50;75.50;;;;;;6173440;23;20756;-94
2023/03/16 11:00:38;;;;;;;9.00;4.00;;;11.60;74.90;;;;;;6175455;23;20417;-94
2023/03/16 11:03:32;;;;;;;8.77;4.47;;;11.80;73.90;;;;;;6174681;23;20785;-94
2023/03/16 11:06:31;;;;;;;7.07;3.70;;;12.20;73.20;;;;;;6175725;23;20421;-94
2023/03/16 11:09:11;;;;;;;7.17;4.43;;;12.60;67.70;;;;;;6175629;23;20425;-94
2023/03/16 11:12:04;;;;;;;8.63;4.70;;;12.60;71.30;;;;;;6178499;23;20421;-94
2023/03/16 11:14:36;;;;;;;10.60;4.23;;;12.70;68.80;;;;;;6164647;23;20749;-95
2023/03/16 11:17:08;;;;;;;11.00;3.87;;;13.40;67.40;;;;;;6169362;23;20445;-95
2023/03/16 11:19:40;;;;;;;10.70;4.47;;;13.70;64.40;;;;;;6168179;23;20772;-94
2023/03/16 11:22:12;;;;;;;9.43;4.60;;;13.60;64.30;;;;;;6168933;23;20393;-94
2023/03/16 11:24:46;;;;;;;10.40;4.37;;;13.30;62.60;;;;;;6169124;23;20933;-93
2023/03/16 11:27:20;;;;;;;8.43;3.50;;;13.20;62.20;;;;;;6165801;23;20433;-94
2023/03/16 11:29:58;;;;;;;7.47;3.53;;;13.60;64.30;;;;;;6169404;23;20403;-94
2023/03/16 11:32:29;;;;;;;9.27;3.93;;;14.00;60.80;;;;;;6172891;23;20463;-94
2023/03/16 11:34:56;;;;;;;8.00;4.10;;;13.50;64.20;;;;;;6171660;23;20889;-94
2023/03/16 11:37:39;;;;;;;15.50;4.50;;;13.60;64.30;;;;;;6175252;23;20433;-94
2023/03/16 11:40:17;;;;;;;8.13;3.90;;;14.00;61.40;;;;;;6172151;23;20503;-94
2023/03/16 11:51:44;;;;;;;8.20;4.00;;;14.30;57.90;;;;;;6165648;23;20907;-94
2023/03/16 11:54:25;;;;;;;7.83;3.57;;;14.10;59.80;;;;;;6183322;23;20438;-95
2023/03/16 11:56:57;;;;;;;7.63;3.23;;;14.80;56.30;;;;;;6173548;23;21017;-94
2023/03/16 11:59:55;;;;;;;7.60;3.43;;;15.50;56.00;;;;;;6166907;23;20395;-95
2023/03/16 12:02:54;;;;;;;7.90;3.57;;;16.00;49.50;;;;;;6132241;23;20402;-94
2023/03/16 12:06:09;;;;;;;7.53;3.80;;;16.10;47.10;;;;;;6106495;23;20419;-95
2023/03/16 12:12:44;;;;;;;12.83;3.93;;;16.30;44.70;;;;;;6121574;23;20421;-95
2023/03/16 12:15:37;;;;;;;11.30;3.50;;;15.90;47.00;;;;;;6179122;23;20417;-94
2023/03/16 12:18:22;;;;;;;9.60;3.97;;;15.30;47.10;;;;;;6180694;23;20506;-94
2023/03/16 12:21:19;;;;;;;7.67;3.60;;;14.70;48.30;;;;;;6182281;23;20418;-94
2023/03/16 12:26:48;;;;;;;8.77;3.57;;;15.20;53.10;;;;;;6165536;23;20470;-95
2023/03/16 12:29:27;;;;;;;6.70;3.50;;;15.10;48.70;;;;;;6185757;23;20431;-95
2023/03/16 12:31:59;;;;;;;9.10;3.63;;;14.90;52.20;;;;;;6185717;23;20397;-94
2023/03/16 12:34:29;;;;;;;7.83;3.60;;;14.70;51.50;;;;;;6172844;23;20399;-94
2023/03/16 12:37:09;;;;;;;17.50;3.47;;;14.50;52.40;;;;;;6178585;23;20499;-94
2023/03/16 12:39:49;;;;;;;6.23;3.00;;;14.20;51.80;;;;;;6170425;23;20869;-94
2023/03/16 12:42:54;;;;;;;7.43;3.13;;;14.30;53.80;;;;;;6171293;23;20435;-94
2023/03/16 12:45:31;;;;;;;11.10;3.63;;;14.10;52.60;;;;;;6168785;23;20484;-94
2023/03/16 12:48:06;;;;;;;6.90;2.93;;;14.00;53.80;;;;;;6169499;23;20438;-94
2023/03/16 12:50:33;;;;;;;8.53;2.80;;;14.00;52.60;;;;;;6168426;23;20467;-94
2023/03/16 12:53:00;;;;;;;7.53;3.10;;;14.00;54.20;;;;;;6170330;23;20503;-94
2023/03/16 12:55:43;;;;;;;9.53;3.37;;;14.10;56.40;;;;;;6172082;23;20446;-94
2023/03/16 12:58:11;;;;;;;9.03;3.53;;;14.00;56.40;;;;;;6168205;23;20434;-94
2023/03/16 13:00:41;;;;;;;8.13;3.20;;;13.80;51.10;;;;;;6168399;23;20441;-93
2023/03/16 13:03:15;;;;;;;6.13;2.80;;;13.80;55.00;;;;;;6168602;23;20460;-93
2023/03/16 13:06:02;;;;;;;6.03;2.40;;;13.90;56.20;;;;;;6169395;23;20409;-94
2023/03/16 13:09:00;;;;;;;6.90;2.50;;;13.80;53.30;;;;;;6178881;23;20418;-94
2023/03/16 13:12:03;;;;;;;;;;;;;;;;;;;;;
2023/03/16 13:14:53;;;;;;;9.93;2.60;;;14.10;55.30;;;;;;6182981;23;20418;-94
2023/03/16 13:17:45;;;;;;;6.53;2.97;;;13.90;52.80;;;;;;6186758;23;20464;-95
2023/03/16 13:20:49;;;;;;;6.50;2.70;;;13.80;56.10;;;;;;6182364;23;20423;-95
2023/03/16 13:24:10;;;;;;;6.90;2.70;;;14.20;55.90;;;;;;6177182;23;20413;-94
2023/03/16 13:29:53;;;;;;;5.63;2.83;;;15.30;49.00;;;;;;6162957;23;20421;-94
2023/03/16 13:32:28;;;;;;;9.80;2.90;;;15.80;46.40;;;;;;6166972;23;20401;-94
2023/03/16 13:35:50;;;;;;;;;;;;;;;;;;;;;
2023/03/16 13:41:39;;;;;;;11.70;3.00;;;16.60;43.50;;;;;;6179236;23;20422;-95
2023/03/16 13:44:13;;;;;;;7.07;2.47;;;16.70;41.30;;;;;;6173311;23;20424;-94
2023/03/16 13:46:40;;;;;;;7.77;2.80;;;16.60;42.20;;;;;;6167844;23;20547;-95
2023/03/16 13:49:12;;;;;;;8.30;2.23;;;16.30;40.90;;;;;;6169327;23;20411;-95
2023/03/16 13:51:44;;;;;;;6.30;2.70;;;16.00;43.70;;;;;;6180102;23;20418;-94
2023/03/16 13:54:23;;;;;;;10.27;2.53;;;15.60;43.30;;;;;;6186029;23;20452;-94
2023/03/16 13:56:51;;;;;;;7.97;2.40;;;15.30;43.50;;;;;;6180629;23;20425;-93
2023/03/16 13:59:22;;;;;;;8.30;2.50;;;15.40;43.60;;;;;;6172969;23;20422;-94
2023/03/16 14:01:56;;;;;;;6.70;2.30;;;15.50;45.20;;;;;;6185861;23;20412;-94
2023/03/16 14:04:27;;;;;;;7.50;2.23;;;15.50;46.20;;;;;;6185427;23;20415;-94
2023/03/16 14:06:58;;;;;;;7.50;1.90;;;15.30;45.50;;;;;;6183975;23;20452;-94
2023/03/16 14:09:28;;;;;;;6.30;1.80;;;14.80;43.70;;;;;;6186544;23;20440;-94
2023/03/16 14:11:56;;;;;;;5.90;2.20;;;14.40;48.00;;;;;;6184562;23;20400;-93
2023/03/16 14:14:28;;;;;;;6.70;1.90;;;14.10;47.70;;;;;;6174069;23;20464;-94
2023/03/16 14:17:04;;;;;;;9.37;1.97;;;14.10;48.40;;;;;;6179800;23;20510;-94
2023/03/16 14:19:41;;;;;;;6.40;2.40;;;14.00;56.20;;;;;;6178306;23;20442;-94
2023/03/16 14:22:14;;;;;;;12.70;2.40;;;14.30;48.90;;;;;;6172881;23;20396;-93
2023/03/16 14:24:41;;;;;;;5.40;2.67;;;14.50;51.30;;;;;;6164183;23;20442;-92
2023/03/16 14:27:20;;;;;;;11.83;2.57;;;14.90;49.50;;;;;;6161828;23;20459;-91
2023/03/16 14:29:54;;;;;;;49.80;13.30;;;15.00;46.90;;;;;;6161370;23;20412;-92
2023/03/16 14:32:33;;;;;;;16.60;4.23;;;15.40;47.10;;;;;;6160890;23;20878;-93
2023/03/16 14:35:32;;;;;;;23.40;6.20;;;15.60;45.70;;;;;;6173079;23;20407;-93
2023/03/16 14:38:40;;;;;;;15.17;3.07;;;15.70;47.60;;;;;;6133872;23;20457;-86
2023/03/16 14:41:32;;;;;;;7.33;2.50;;;15.90;41.50;;;;;;6154007;23;20421;-89
2023/03/16 14:44:03;;;;;;;6.50;1.77;;;15.90;41.60;;;;;;6154310;23;20397;-86
2023/03/16 14:58:24;;;;;;;6.97;1.73;;;15.50;41.80;;;;;;6156539;23;20441;-95
2023/03/16 15:03:41;;;;;;;4.90;1.50;;;15.40;41.30;;;;;;6179633;23;20438;-91
2023/03/16 15:06:08;;;;;;;5.80;1.80;;;15.60;38.20;;;;;;6191345;23;20402;-92
2023/03/16 15:08:47;;;;;;;5.10;1.97;;;15.40;36.70;;;;;;6192798;23;20420;-93
2023/03/16 15:11:23;;;;;;;5.67;1.47;;;15.50;36.60;;;;;;6191261;23;20390;-93
2023/03/16 15:14:02;;;;;;;5.63;1.80;;;15.50;35.70;;;;;;6192862;23;20497;-95
2023/03/16 15:16:32;;;;;;;5.90;1.40;;;15.40;39.10;;;;;;6193227;23;20449;-94
2023/03/16 15:19:02;;;;;;;4.27;1.53;;;15.20;37.40;;;;;;6158214;23;20404;-95
2023/03/16 15:21:32;;;;;;;5.57;1.70;;;15.10;36.00;;;;;;6192825;23;20403;-93
2023/03/16 15:26:42;;;;;;;5.30;1.70;;;15.50;40.20;;;;;;6170186;23;20461;-95
2023/03/16 15:29:12;;;;;;;5.13;1.73;;;15.20;39.90;;;;;;6192924;23;20421;-95
2023/03/16 15:34:15;;;;;;;7.07;2.30;;;15.60;37.00;;;;;;6169634;23;21054;-94
2023/03/16 15:39:25;;;;;;;6.07;2.07;;;15.10;39.90;;;;;;6183228;23;20430;-96
2023/03/16 15:41:55;;;;;;;5.90;2.10;;;15.20;41.20;;;;;;6192977;23;20404;-96
2023/03/16 15:54:44;;;;;;;5.77;2.43;;;13.70;45.20;;;;;;6162907;23;20439;-85
2023/03/16 15:57:13;;;;;;;8.63;2.40;;;13.60;47.20;;;;;;6156790;23;20422;-86
2023/03/16 15:59:44;;;;;;;6.23;2.20;;;13.40;47.10;;;;;;6127243;23;20499;-85
2023/03/16 16:02:26;;;;;;;6.20;2.60;;;13.10;50.30;;;;;;6126830;23;20398;-86
2023/03/16 16:04:55;;;;;;;7.23;2.40;;;12.80;49.60;;;;;;6102543;23;20398;-86
2023/03/16 16:07:26;;;;;;;6.03;2.40;;;12.70;52.70;;;;;;6100294;23;20442;-86
2023/03/16 16:09:54;;;;;;;8.43;2.27;;;12.50;51.10;;;;;;6125813;23;20801;-86
2023/03/16 16:12:50;;;;;;;5.97;2.70;;;12.30;52.80;;;;;;6125794;23;20394;-84
2023/03/16 16:15:34;;;;;;;6.90;2.77;;;12.20;54.60;;;;;;6126129;23;20498;-85
2023/03/16 16:18:06;;;;;;;7.50;2.67;;;12.20;58.50;;;;;;6135661;23;20438;-85
2023/03/16 16:20:41;;;;;;;5.57;2.50;;;12.20;58.90;;;;;;6127411;23;20406;-85
2023/03/16 16:23:12;;;;;;;7.27;2.70;;;12.00;59.20;;;;;;6127473;23;20398;-85
2023/03/16 16:25:45;;;;;;;9.10;2.97;;;11.90;60.10;;;;;;6127056;23;20408;-85
2023/03/16 16:33:53;;;;;;;6.20;2.83;;;11.80;62.00;;;;;;6182262;23;20417;-94
2023/03/16 16:36:50;;;;;;;7.47;3.20;;;11.70;62.60;;;;;;6184594;23;20405;-94
2023/03/16 16:39:19;;;;;;;12.73;4.20;;;11.70;62.50;;;;;;6194373;23;20432;-91
2023/03/16 16:41:48;;;;;;;10.03;2.93;;;11.60;62.40;;;;;;6193697;23;20404;-93
2023/03/16 16:44:19;;;;;;;6.27;3.10;;;11.60;63.30;;;;;;6194724;23;20405;-93
2023/03/16 16:46:48;;;;;;;7.50;2.50;;;11.70;62.60;;;;;;6194447;23;20421;-94
2023/03/16 16:49:18;;;;;;;8.30;2.50;;;11.70;63.80;;;;;;6194482;23;20409;-93
2023/03/16 16:51:46;;;;;;;6.37;2.97;;;11.50;64.30;;;;;;6169734;23;20405;-93
2023/03/16 17:11:21;;;;;;;6.33;3.33;;;11.10;66.70;;;;;;6158628;23;20432;-94
2023/03/16 17:13:50;;;;;;;7.63;3.60;;;11.00;69.10;;;;;;6194699;23;20441;-94
2023/03/16 17:16:20;;;;;;;10.20;3.97;;;10.90;71.30;;;;;;6194526;23;20421;-94
2023/03/16 17:35:17;;;;;;;8.80;4.03;;;9.80;78.50;;;;;;6183093;23;20426;-93
2023/03/16 17:40:26;;;;;;;12.20;3.93;;;9.60;80.70;;;;;;6182345;23;20390;-94
2023/03/16 17:45:40;;;;;;;7.80;4.10;;;9.40;82.00;;;;;;6183072;23;20408;-93
2023/03/16 17:48:15;;;;;;;10.30;4.50;;;9.30;82.90;;;;;;6194025;23;20424;-95
2023/03/16 17:53:27;;;;;;;8.80;4.10;;;9.10;84.90;;;;;;6151734;23;20461;-94
2023/03/16 18:27:46;;;;;;;8.23;4.53;;;8.60;88.10;;;;;;6181515;23;20442;-96
2023/03/16 18:35:38;;;;;;;10.57;5.37;;;8.50;88.80;;;;;;6182748;23;20426;-94
2023/03/16 18:44:29;;;;;;;15.77;4.30;;;8.40;89.60;;;;;;6023052;23;20414;-92
2023/03/16 18:47:05;;;;;;;8.93;4.27;;;8.30;89.20;;;;;;6023008;23;20431;-92
2023/03/16 18:49:37;;;;;;;7.10;3.80;;;8.30;89.20;;;;;;6170452;23;20492;-92
2023/03/16 18:52:19;;;;;;;7.97;4.57;;;8.20;89.80;;;;;;6170741;23;20391;-92
2023/03/16 18:58:15;;;;;;;7.20;3.97;;;8.20;88.60;;;;;;6117012;23;20468;-92
2023/03/16 19:01:40;;;;;;;10.73;4.50;;;8.30;88.30;;;;;;6168822;23;20548;-90
2023/03/16 19:07:10;;;;;;;8.10;4.53;;;8.10;89.80;;;;;;6160002;23;20879;-91
2023/03/16 19:09:46;;;;;;;9.17;3.80;;;8.10;89.60;;;;;;6175010;23;20414;-93
2023/03/16 19:12:48;;;;;;;8.97;4.67;;;8.20;90.00;;;;;;6173533;23;20417;-92